CYFS

Fort Simpson Airport

Fort Simpson, Northwest Territories, Canada
METAR CYFS 161000Z 00000KT 15SM BKN009 M11/M13 A2979 RMK ST5 SLP104
Observed Flight Rules
Dec-16 @ 10:00 UTC (45 minutes ago) Instrument Flight Rules
Wind Visibility Clouds
Calm 15 miles
  • Broken at 900' AGL
Temperatures Readings
Current -11°C / 12°F
Dewpoint -13°C / 9°F
Humidity 85%
Altimeter 29.79" Hg
Pressure 1010.4 hPa
Elevation 169
METAR CYFS 161000Z 00000KT 15SM BKN009 M11/M13 A2979 RMK ST5 SLP104
Observed Flight Rules
Dec-16 @ 10:00 UTC
(45 minutes ago)
IFR
Wind Visibility
Calm 15 miles
Clouds
  • Broken at 900' AGL
Temperature Dewpoint
-11°C / 12°F -13°C / 9°F
Humidity Altimeter Pressure
85% 29.79" Hg 1010.4 hPa